KLNK/LNK METAR and TAF weather

Enter ICAO airport designator
Station Type Date Time Source
KLNK METAR 2022/11/26 07:54 UTC NOAA

KLNK 260754Z AUTO 18004KT 10SM CLR 02/M05 A3008 RMK AO2 SLP189 T00171050


Station Type Date Time Source
KLNK Decoded METAR 2022/11/26 07:54 UTC NOAA

LINCOLN MUNICIPAL AIRPORT, NE, United States (KLNK) 40-50N 96-46W 364M
Nov 26, 2022 - 02:54 AM EST / 2022.11.26 0754 UTC
Wind: from the S (180 degrees) at 5 MPH (4 KT):0
Visibility: 10 mile(s):0
Sky conditions: clear
Temperature: 35.1 F (1.7 C)
Dew Point: 23.0 F (-5.0 C)
Relative Humidity: 61%
Pressure (altimeter): 30.08 in. Hg (1018 hPa)
ob: KLNK 260754Z AUTO 18004KT 10SM CLR 02/M05 A3008 RMK AO2 SLP189 T00171050
cycle: 8

Station Type Date Time Source
KLNK TAF 2022/11/26 06:22 UTC NOAA

TAF KLNK 260520Z 2606/2706 20011KT P6SM SKC
FM270000 34006KT P6SM OVC100
FM270300 35011G20KT P6SM OVC100

Example: see airport list